sensor_id;sensor_type;location;lat;lon;timestamp;pressure;altitude;pressure_sealevel;temperature;humidity
31011;BME280;26395;53.412;19.598;2023-04-05T00:05:43;101011.95;;;1.92;54.26
31011;BME280;26395;53.412;19.598;2023-04-05T00:20:49;100997.21;;;2.11;54.96
31011;BME280;26395;53.412;19.598;2023-04-05T00:35:52;100983.44;;;2.22;54.94
31011;BME280;26395;53.412;19.598;2023-04-05T00:50:56;100982.12;;;2.45;55.60
31011;BME280;26395;53.412;19.598;2023-04-05T01:36:40;100957.54;;;2.94;56.75
31011;BME280;26395;53.412;19.598;2023-04-05T01:51:44;100955.73;;;3.07;57.37
31011;BME280;26395;53.412;19.598;2023-04-05T02:06:47;100954.15;;;3.19;57.32
31011;BME280;26395;53.412;19.598;2023-04-05T02:21:51;100944.45;;;3.38;57.25
31011;BME280;26395;53.412;19.598;2023-04-05T02:36:58;100932.48;;;3.42;57.47
31011;BME280;26395;53.412;19.598;2023-04-05T02:52:01;100931.06;;;3.58;57.91
31011;BME280;26395;53.412;19.598;2023-04-05T03:07:05;100930.31;;;3.73;57.79
31011;BME280;26395;53.412;19.598;2023-04-05T03:22:12;100927.43;;;3.68;57.89
31011;BME280;26395;53.412;19.598;2023-04-05T03:37:15;100928.43;;;3.76;58.16
31011;BME280;26395;53.412;19.598;2023-04-05T03:52:24;100922.11;;;3.74;58.30
31011;BME280;26395;53.412;19.598;2023-04-05T04:07:27;100913.89;;;3.73;58.74
31011;BME280;26395;53.412;19.598;2023-04-05T04:22:30;100917.27;;;3.78;58.75
31011;BME280;26395;53.412;19.598;2023-04-05T04:37:56;100930.58;;;3.75;58.80
31011;BME280;26395;53.412;19.598;2023-04-05T04:53:35;100934.23;;;3.78;59.11
31011;BME280;26395;53.412;19.598;2023-04-05T05:08:38;100933.29;;;3.83;59.33
31011;BME280;26395;53.412;19.598;2023-04-05T05:23:42;100936.34;;;3.92;59.62
31011;BME280;26395;53.412;19.598;2023-04-05T05:38:45;100934.60;;;3.77;60.10
31011;BME280;26395;53.412;19.598;2023-04-05T05:53:49;100938.55;;;3.71;60.79
31011;BME280;26395;53.412;19.598;2023-04-05T06:08:53;100937.80;;;4.11;60.31
31011;BME280;26395;53.412;19.598;2023-04-05T06:23:56;100940.59;;;4.58;59.58
31011;BME280;26395;53.412;19.598;2023-04-05T06:38:59;100941.27;;;4.72;59.53
31011;BME280;26395;53.412;19.598;2023-04-05T06:54:02;100943.48;;;5.04;59.17
31011;BME280;26395;53.412;19.598;2023-04-05T07:09:06;100953.41;;;5.33;58.50
31011;BME280;26395;53.412;19.598;2023-04-05T07:24:09;100950.69;;;5.35;58.28
31011;BME280;26395;53.412;19.598;2023-04-05T07:39:12;100949.90;;;5.77;57.55
31011;BME280;26395;53.412;19.598;2023-04-05T07:54:15;100950.25;;;6.25;56.72
31011;BME280;26395;53.412;19.598;2023-04-05T08:09:18;100951.85;;;6.77;55.50
31011;BME280;26395;53.412;19.598;2023-04-05T08:24:22;100946.88;;;7.34;53.17
31011;BME280;26395;53.412;19.598;2023-04-05T08:39:25;100941.64;;;8.89;51.57
31011;BME280;26395;53.412;19.598;2023-04-05T08:54:29;100945.40;;;9.56;48.10
31011;BME280;26395;53.412;19.598;2023-04-05T09:09:34;100941.39;;;9.28;47.25
31011;BME280;26395;53.412;19.598;2023-04-05T09:24:41;100942.30;;;8.75;45.01
31011;BME280;26395;53.412;19.598;2023-04-05T09:39:46;100946.48;;;8.70;45.46
31011;BME280;26395;53.412;19.598;2023-04-05T09:54:55;100952.45;;;9.21;45.56
31011;BME280;26395;53.412;19.598;2023-04-05T10:10:00;100955.70;;;9.50;43.99
31011;BME280;26395;53.412;19.598;2023-04-05T10:25:07;100952.88;;;9.71;44.28
31011;BME280;26395;53.412;19.598;2023-04-05T10:40:12;100963.14;;;9.55;43.81
31011;BME280;26395;53.412;19.598;2023-04-05T10:55:16;100962.45;;;9.55;44.32
31011;BME280;26395;53.412;19.598;2023-04-05T11:10:20;100958.07;;;9.53;44.16
31011;BME280;26395;53.412;19.598;2023-04-05T11:25:23;100950.08;;;9.67;43.41
31011;BME280;26395;53.412;19.598;2023-04-05T11:40:33;100948.10;;;10.05;43.79
31011;BME280;26395;53.412;19.598;2023-04-05T11:55:37;100955.55;;;10.18;43.69
31011;BME280;26395;53.412;19.598;2023-04-05T12:10:42;100961.96;;;10.09;43.79
31011;BME280;26395;53.412;19.598;2023-04-05T12:25:49;100955.77;;;9.94;43.77
31011;BME280;26395;53.412;19.598;2023-04-05T12:40:52;100949.38;;;9.83;43.96
31011;BME280;26395;53.412;19.598;2023-04-05T12:55:57;100943.85;;;9.92;44.37
31011;BME280;26395;53.412;19.598;2023-04-05T13:11:00;100942.33;;;9.91;44.24
31011;BME280;26395;53.412;19.598;2023-04-05T13:26:04;100947.13;;;9.74;44.98
31011;BME280;26395;53.412;19.598;2023-04-05T13:41:08;100946.19;;;9.70;44.62
31011;BME280;26395;53.412;19.598;2023-04-05T13:56:11;100950.73;;;9.65;45.06
31011;BME280;26395;53.412;19.598;2023-04-05T14:11:14;100963.08;;;9.59;45.06
31011;BME280;26395;53.412;19.598;2023-04-05T14:26:18;100963.04;;;9.57;45.15
31011;BME280;26395;53.412;19.598;2023-04-05T14:41:21;100968.65;;;9.29;45.27
31011;BME280;26395;53.412;19.598;2023-04-05T14:56:24;100974.48;;;9.16;45.44
31011;BME280;26395;53.412;19.598;2023-04-05T15:11:28;100979.73;;;9.11;45.18
31011;BME280;26395;53.412;19.598;2023-04-05T15:26:32;100977.10;;;9.09;45.13
31011;BME280;26395;53.412;19.598;2023-04-05T15:41:35;100983.39;;;8.99;44.96
31011;BME280;26395;53.412;19.598;2023-04-05T15:56:39;100991.77;;;8.86;44.79
31011;BME280;26395;53.412;19.598;2023-04-05T16:11:42;100996.90;;;8.75;44.89
31011;BME280;26395;53.412;19.598;2023-04-05T16:26:46;101000.84;;;8.66;45.16
31011;BME280;26395;53.412;19.598;2023-04-05T16:41:49;101005.92;;;8.36;44.93
31011;BME280;26395;53.412;19.598;2023-04-05T16:56:52;101015.58;;;8.27;45.33
31011;BME280;26395;53.412;19.598;2023-04-05T17:11:56;101020.63;;;8.09;45.74
31011;BME280;26395;53.412;19.598;2023-04-05T17:27:01;101023.27;;;7.92;46.23
31011;BME280;26395;53.412;19.598;2023-04-05T17:42:05;101035.91;;;7.80;46.66
31011;BME280;26395;53.412;19.598;2023-04-05T18:00:43;101045.08;;;7.62;47.13
31011;BME280;26395;53.412;19.598;2023-04-05T18:15:51;101055.31;;;7.48;47.39
31011;BME280;26395;53.412;19.598;2023-04-05T18:30:55;101065.67;;;7.46;47.81
31011;BME280;26395;53.412;19.598;2023-04-05T18:45:59;101068.50;;;7.40;48.56
31011;BME280;26395;53.412;19.598;2023-04-05T19:01:04;101073.89;;;7.35;49.06
31011;BME280;26395;53.412;19.598;2023-04-05T19:16:08;101084.75;;;7.31;49.14
31011;BME280;26395;53.412;19.598;2023-04-05T19:31:14;101086.33;;;7.22;49.66
31011;BME280;26395;53.412;19.598;2023-04-05T19:46:18;101092.93;;;7.14;48.97
31011;BME280;26395;53.412;19.598;2023-04-05T20:01:40;101096.16;;;7.12;48.83
31011;BME280;26395;53.412;19.598;2023-04-05T20:16:44;101098.51;;;7.08;49.84
31011;BME280;26395;53.412;19.598;2023-04-05T20:31:48;101092.25;;;7.07;50.63
31011;BME280;26395;53.412;19.598;2023-04-05T20:46:52;101090.84;;;6.99;51.16
31011;BME280;26395;53.412;19.598;2023-04-05T21:02:02;101088.83;;;6.83;51.72
31011;BME280;26395;53.412;19.598;2023-04-05T21:17:06;101084.58;;;6.79;51.52
31011;BME280;26395;53.412;19.598;2023-04-05T21:32:10;101084.95;;;6.81;51.33
31011;BME280;26395;53.412;19.598;2023-04-05T21:47:13;101082.68;;;6.81;51.59
31011;BME280;26395;53.412;19.598;2023-04-05T22:02:16;101081.77;;;6.79;52.13
31011;BME280;26395;53.412;19.598;2023-04-05T22:17:19;101081.09;;;6.79;52.37
31011;BME280;26395;53.412;19.598;2023-04-05T22:32:22;101085.38;;;6.74;53.07
31011;BME280;26395;53.412;19.598;2023-04-05T22:47:26;101092.48;;;6.72;53.26
31011;BME280;26395;53.412;19.598;2023-04-05T23:02:29;101093.58;;;6.62;54.31
31011;BME280;26395;53.412;19.598;2023-04-05T23:17:32;101089.27;;;6.55;54.63
31011;BME280;26395;53.412;19.598;2023-04-05T23:32:35;101089.02;;;6.56;54.94
31011;BME280;26395;53.412;19.598;2023-04-05T23:47:38;101086.41;;;6.57;55.16
